sensor_id;sensor_type;location;lat;lon;timestamp;pressure;altitude;pressure_sealevel;temperature
69704;BMP280;56967;43.538;-5.646;2022-09-16T00:01:17;101667.13;;;29.19
69704;BMP280;56967;43.538;-5.646;2022-09-16T00:03:44;101668.06;;;29.23
69704;BMP280;56967;43.538;-5.646;2022-09-16T00:06:19;101671.72;;;29.28
69704;BMP280;56967;43.538;-5.646;2022-09-16T00:08:46;101672.97;;;29.39
69704;BMP280;56967;43.538;-5.646;2022-09-16T00:11:11;101655.22;;;29.12
69704;BMP280;56967;43.538;-5.646;2022-09-16T00:13:37;101659.00;;;29.28
69704;BMP280;56967;43.538;-5.646;2022-09-16T00:16:07;101674.09;;;29.38
69704;BMP280;56967;43.538;-5.646;2022-09-16T00:18:33;101674.59;;;29.69
69704;BMP280;56967;43.538;-5.646;2022-09-16T00:20:59;101674.28;;;29.70
69704;BMP280;56967;43.538;-5.646;2022-09-16T00:23:24;101670.75;;;29.32
69704;BMP280;56967;43.538;-5.646;2022-09-16T00:25:51;101674.97;;;29.12
69704;BMP280;56967;43.538;-5.646;2022-09-16T00:28:17;101668.47;;;29.13
69704;BMP280;56967;43.538;-5.646;2022-09-16T00:30:43;101670.88;;;29.53
69704;BMP280;56967;43.538;-5.646;2022-09-16T00:33:09;101671.19;;;29.51
69704;BMP280;56967;43.538;-5.646;2022-09-16T00:35:35;101676.56;;;29.22
69704;BMP280;56967;43.538;-5.646;2022-09-16T00:38:00;101675.91;;;29.16
69704;BMP280;56967;43.538;-5.646;2022-09-16T00:40:26;101680.19;;;29.26
69704;BMP280;56967;43.538;-5.646;2022-09-16T00:42:51;101684.28;;;29.49
69704;BMP280;56967;43.538;-5.646;2022-09-16T00:45:22;101683.00;;;29.47
69704;BMP280;56967;43.538;-5.646;2022-09-16T00:52:58;101683.31;;;29.54
69704;BMP280;56967;43.538;-5.646;2022-09-16T00:55:28;101686.03;;;29.54
69704;BMP280;56967;43.538;-5.646;2022-09-16T00:57:56;101680.91;;;29.52
69704;BMP280;56967;43.538;-5.646;2022-09-16T01:00:24;101686.00;;;29.07
69704;BMP280;56967;43.538;-5.646;2022-09-16T01:02:50;101686.75;;;29.08
69704;BMP280;56967;43.538;-5.646;2022-09-16T01:05:21;101689.34;;;29.04
69704;BMP280;56967;43.538;-5.646;2022-09-16T01:07:51;101686.47;;;28.92
69704;BMP280;56967;43.538;-5.646;2022-09-16T01:10:23;101687.28;;;28.76
69704;BMP280;56967;43.538;-5.646;2022-09-16T01:13:10;101682.84;;;28.54
69704;BMP280;56967;43.538;-5.646;2022-09-16T01:31:50;101679.47;;;28.66
69704;BMP280;56967;43.538;-5.646;2022-09-16T01:37:32;101683.13;;;29.04
69704;BMP280;56967;43.538;-5.646;2022-09-16T01:42:49;101687.13;;;28.81
69704;BMP280;56967;43.538;-5.646;2022-09-16T01:45:21;101688.06;;;28.93
69704;BMP280;56967;43.538;-5.646;2022-09-16T01:53:55;101686.81;;;29.46
69704;BMP280;56967;43.538;-5.646;2022-09-16T01:56:46;101686.19;;;29.49
69704;BMP280;56967;43.538;-5.646;2022-09-16T01:59:20;101680.41;;;28.70
69704;BMP280;56967;43.538;-5.646;2022-09-16T02:01:56;101686.13;;;29.02
69704;BMP280;56967;43.538;-5.646;2022-09-16T02:04:32;101686.56;;;29.30
69704;BMP280;56967;43.538;-5.646;2022-09-16T02:07:00;101693.34;;;28.90
69704;BMP280;56967;43.538;-5.646;2022-09-16T02:09:34;101689.66;;;28.52
69704;BMP280;56967;43.538;-5.646;2022-09-16T02:12:03;101687.88;;;28.73
69704;BMP280;56967;43.538;-5.646;2022-09-16T02:14:33;101693.47;;;28.93
69704;BMP280;56967;43.538;-5.646;2022-09-16T02:17:08;101687.56;;;29.08
69704;BMP280;56967;43.538;-5.646;2022-09-16T02:22:15;101696.28;;;29.23
69704;BMP280;56967;43.538;-5.646;2022-09-16T02:24:44;101705.56;;;28.79
69704;BMP280;56967;43.538;-5.646;2022-09-16T02:27:14;101695.56;;;28.54
69704;BMP280;56967;43.538;-5.646;2022-09-16T02:29:51;101694.59;;;28.84
69704;BMP280;56967;43.538;-5.646;2022-09-16T02:32:21;101688.84;;;28.60
69704;BMP280;56967;43.538;-5.646;2022-09-16T02:34:50;101692.34;;;28.35
69704;BMP280;56967;43.538;-5.646;2022-09-16T02:37:21;101691.25;;;28.44
69704;BMP280;56967;43.538;-5.646;2022-09-16T02:39:52;101692.03;;;28.70
69704;BMP280;56967;43.538;-5.646;2022-09-16T02:42:19;101686.63;;;28.36
69704;BMP280;56967;43.538;-5.646;2022-09-16T02:44:45;101688.88;;;28.85
69704;BMP280;56967;43.538;-5.646;2022-09-16T02:47:16;101693.78;;;29.00
69704;BMP280;56967;43.538;-5.646;2022-09-16T02:50:15;101691.75;;;28.63
69704;BMP280;56967;43.538;-5.646;2022-09-16T02:52:58;101692.03;;;28.70
69704;BMP280;56967;43.538;-5.646;2022-09-16T02:56:08;101692.84;;;28.54
69704;BMP280;56967;43.538;-5.646;2022-09-16T02:58:14;101688.69;;;28.65
69704;BMP280;56967;43.538;-5.646;2022-09-16T03:00:44;101687.56;;;29.08
69704;BMP280;56967;43.538;-5.646;2022-09-16T03:03:10;101690.75;;;29.02
69704;BMP280;56967;43.538;-5.646;2022-09-16T03:08:31;101680.59;;;28.99
69704;BMP280;56967;43.538;-5.646;2022-09-16T03:11:04;101684.84;;;29.08
69704;BMP280;56967;43.538;-5.646;2022-09-16T03:13:46;101684.31;;;29.23
69704;BMP280;56967;43.538;-5.646;2022-09-16T03:16:30;101680.63;;;29.45
69704;BMP280;56967;43.538;-5.646;2022-09-16T03:22:16;101679.03;;;29.82
69704;BMP280;56967;43.538;-5.646;2022-09-16T03:27:58;101674.03;;;28.91
69704;BMP280;56967;43.538;-5.646;2022-09-16T03:30:29;101679.28;;;28.96
69704;BMP280;56967;43.538;-5.646;2022-09-16T03:33:01;101674.81;;;29.00
69704;BMP280;56967;43.538;-5.646;2022-09-16T03:35:58;101672.00;;;28.71
69704;BMP280;56967;43.538;-5.646;2022-09-16T03:38:26;101670.53;;;28.74
69704;BMP280;56967;43.538;-5.646;2022-09-16T03:40:52;101670.97;;;29.18
69704;BMP280;56967;43.538;-5.646;2022-09-16T03:43:18;101667.97;;;29.58
69704;BMP280;56967;43.538;-5.646;2022-09-16T03:45:43;101665.97;;;29.38
69704;BMP280;56967;43.538;-5.646;2022-09-16T03:48:11;101665.63;;;29.48
69704;BMP280;56967;43.538;-5.646;2022-09-16T03:50:37;101661.75;;;29.57
69704;BMP280;56967;43.538;-5.646;2022-09-16T03:53:03;101674.78;;;29.26
69704;BMP280;56967;43.538;-5.646;2022-09-16T03:55:29;101663.34;;;29.87
69704;BMP280;56967;43.538;-5.646;2022-09-16T03:57:54;101672.75;;;28.97
69704;BMP280;56967;43.538;-5.646;2022-09-16T04:00:20;101678.81;;;28.94
69704;BMP280;56967;43.538;-5.646;2022-09-16T04:02:47;101668.00;;;28.69
69704;BMP280;56967;43.538;-5.646;2022-09-16T04:05:13;101671.34;;;28.74
69704;BMP280;56967;43.538;-5.646;2022-09-16T04:07:38;101663.88;;;28.71
69704;BMP280;56967;43.538;-5.646;2022-09-16T04:10:05;101663.53;;;28.30
69704;BMP280;56967;43.538;-5.646;2022-09-16T04:12:31;101664.34;;;28.39
69704;BMP280;56967;43.538;-5.646;2022-09-16T04:14:57;101662.56;;;28.43
69704;BMP280;56967;43.538;-5.646;2022-09-16T04:17:22;101660.69;;;28.78
69704;BMP280;56967;43.538;-5.646;2022-09-16T04:19:48;101664.91;;;29.22
69704;BMP280;56967;43.538;-5.646;2022-09-16T04:22:14;101662.84;;;29.27
69704;BMP280;56967;43.538;-5.646;2022-09-16T04:24:39;101657.78;;;28.91
69704;BMP280;56967;43.538;-5.646;2022-09-16T04:27:05;101658.38;;;29.14
69704;BMP280;56967;43.538;-5.646;2022-09-16T04:29:31;101661.09;;;29.05
69704;BMP280;56967;43.538;-5.646;2022-09-16T04:31:57;101661.53;;;29.33
69704;BMP280;56967;43.538;-5.646;2022-09-16T04:34:22;101658.56;;;29.55
69704;BMP280;56967;43.538;-5.646;2022-09-16T04:36:48;101666.66;;;30.22
69704;BMP280;56967;43.538;-5.646;2022-09-16T04:39:13;101660.34;;;30.30
69704;BMP280;56967;43.538;-5.646;2022-09-16T04:41:39;101664.91;;;30.38
69704;BMP280;56967;43.538;-5.646;2022-09-16T04:44:04;101657.78;;;30.13
69704;BMP280;56967;43.538;-5.646;2022-09-16T04:46:30;101662.34;;;29.92
69704;BMP280;56967;43.538;-5.646;2022-09-16T04:48:57;101661.31;;;30.05
69704;BMP280;56967;43.538;-5.646;2022-09-16T04:51:24;101653.50;;;29.54
69704;BMP280;56967;43.538;-5.646;2022-09-16T04:53:55;101653.25;;;29.30
69704;BMP280;56967;43.538;-5.646;2022-09-16T04:56:31;101655.59;;;29.48
69704;BMP280;56967;43.538;-5.646;2022-09-16T04:59:01;101662.38;;;30.54
69704;BMP280;56967;43.538;-5.646;2022-09-16T05:01:30;101654.75;;;30.06
69704;BMP280;56967;43.538;-5.646;2022-09-16T05:04:02;101656.88;;;30.00
69704;BMP280;56967;43.538;-5.646;2022-09-16T05:06:30;101659.34;;;29.93
69704;BMP280;56967;43.538;-5.646;2022-09-16T05:08:56;101653.88;;;29.73
69704;BMP280;56967;43.538;-5.646;2022-09-16T05:11:24;101648.72;;;29.80
69704;BMP280;56967;43.538;-5.646;2022-09-16T05:13:50;101652.06;;;29.85
69704;BMP280;56967;43.538;-5.646;2022-09-16T05:16:18;101650.44;;;30.13
69704;BMP280;56967;43.538;-5.646;2022-09-16T05:18:45;101654.41;;;30.16
69704;BMP280;56967;43.538;-5.646;2022-09-16T05:21:16;101658.03;;;30.20
69704;BMP280;56967;43.538;-5.646;2022-09-16T05:23:43;101647.47;;;29.69
69704;BMP280;56967;43.538;-5.646;2022-09-16T05:26:21;101649.44;;;29.68
69704;BMP280;56967;43.538;-5.646;2022-09-16T05:28:47;101658.88;;;29.83
69704;BMP280;56967;43.538;-5.646;2022-09-16T05:33:42;101669.00;;;29.74
69704;BMP280;56967;43.538;-5.646;2022-09-16T05:36:13;101667.63;;;29.68
69704;BMP280;56967;43.538;-5.646;2022-09-16T05:38:39;101667.31;;;29.06
69704;BMP280;56967;43.538;-5.646;2022-09-16T05:41:05;101666.41;;;28.59
69704;BMP280;56967;43.538;-5.646;2022-09-16T05:43:31;101669.97;;;29.32
69704;BMP280;56967;43.538;-5.646;2022-09-16T05:45:57;101669.03;;;29.28
69704;BMP280;56967;43.538;-5.646;2022-09-16T05:48:23;101664.97;;;29.04
69704;BMP280;56967;43.538;-5.646;2022-09-16T05:50:54;101673.38;;;29.58
69704;BMP280;56967;43.538;-5.646;2022-09-16T05:53:21;101667.53;;;29.85
69704;BMP280;56967;43.538;-5.646;2022-09-16T05:56:05;101680.84;;;29.98
69704;BMP280;56967;43.538;-5.646;2022-09-16T05:58:32;101675.34;;;29.86
69704;BMP280;56967;43.538;-5.646;2022-09-16T06:01:07;101677.81;;;30.00
69704;BMP280;56967;43.538;-5.646;2022-09-16T06:03:35;101678.56;;;30.29
69704;BMP280;56967;43.538;-5.646;2022-09-16T06:06:01;101681.84;;;29.94
69704;BMP280;56967;43.538;-5.646;2022-09-16T06:08:28;101688.34;;;30.63
69704;BMP280;56967;43.538;-5.646;2022-09-16T06:10:54;101689.44;;;30.50
69704;BMP280;56967;43.538;-5.646;2022-09-16T06:13:20;101693.84;;;30.34
69704;BMP280;56967;43.538;-5.646;2022-09-16T06:15:49;101702.06;;;30.67
69704;BMP280;56967;43.538;-5.646;2022-09-16T06:18:16;101700.88;;;30.88
69704;BMP280;56967;43.538;-5.646;2022-09-16T06:20:43;101703.97;;;30.25
69704;BMP280;56967;43.538;-5.646;2022-09-16T06:23:09;101700.56;;;31.34
69704;BMP280;56967;43.538;-5.646;2022-09-16T06:25:35;101713.69;;;31.44
69704;BMP280;56967;43.538;-5.646;2022-09-16T06:28:01;101715.41;;;30.51
69704;BMP280;56967;43.538;-5.646;2022-09-16T06:30:27;101710.75;;;31.49
69704;BMP280;56967;43.538;-5.646;2022-09-16T06:32:53;101707.25;;;30.39
69704;BMP280;56967;43.538;-5.646;2022-09-16T06:35:18;101708.88;;;30.52
69704;BMP280;56967;43.538;-5.646;2022-09-16T06:37:44;101714.09;;;30.16
69704;BMP280;56967;43.538;-5.646;2022-09-16T06:40:09;101716.81;;;30.16
69704;BMP280;56967;43.538;-5.646;2022-09-16T06:42:35;101701.88;;;30.01
69704;BMP280;56967;43.538;-5.646;2022-09-16T06:45:00;101725.16;;;30.73
69704;BMP280;56967;43.538;-5.646;2022-09-16T06:47:28;101712.53;;;29.31
69704;BMP280;56967;43.538;-5.646;2022-09-16T06:49:55;101715.31;;;28.80
69704;BMP280;56967;43.538;-5.646;2022-09-16T06:52:21;101718.72;;;29.40
69704;BMP280;56967;43.538;-5.646;2022-09-16T06:54:46;101724.66;;;29.16
69704;BMP280;56967;43.538;-5.646;2022-09-16T06:57:12;101719.13;;;29.68
69704;BMP280;56967;43.538;-5.646;2022-09-16T06:59:37;101717.00;;;29.82
69704;BMP280;56967;43.538;-5.646;2022-09-16T07:02:03;101722.25;;;29.41
69704;BMP280;56967;43.538;-5.646;2022-09-16T07:04:28;101722.88;;;29.84
69704;BMP280;56967;43.538;-5.646;2022-09-16T07:06:54;101721.06;;;29.96
69704;BMP280;56967;43.538;-5.646;2022-09-16T07:09:22;101724.25;;;29.98
69704;BMP280;56967;43.538;-5.646;2022-09-16T07:11:48;101730.88;;;29.26
69704;BMP280;56967;43.538;-5.646;2022-09-16T07:14:13;101735.34;;;28.79
69704;BMP280;56967;43.538;-5.646;2022-09-16T07:16:39;101736.94;;;28.97
69704;BMP280;56967;43.538;-5.646;2022-09-16T07:19:04;101732.06;;;28.99
69704;BMP280;56967;43.538;-5.646;2022-09-16T07:21:30;101732.06;;;28.99
69704;BMP280;56967;43.538;-5.646;2022-09-16T07:24:01;101733.03;;;29.58
69704;BMP280;56967;43.538;-5.646;2022-09-16T07:26:32;101739.63;;;29.14
69704;BMP280;56967;43.538;-5.646;2022-09-16T07:28:59;101740.38;;;29.49
69704;BMP280;56967;43.538;-5.646;2022-09-16T07:31:27;101736.53;;;29.96
69704;BMP280;56967;43.538;-5.646;2022-09-16T07:33:55;101740.47;;;30.07
69704;BMP280;56967;43.538;-5.646;2022-09-16T07:36:23;101742.19;;;30.41
69704;BMP280;56967;43.538;-5.646;2022-09-16T07:38:50;101750.41;;;30.53
69704;BMP280;56967;43.538;-5.646;2022-09-16T07:41:18;101751.38;;;30.69
69704;BMP280;56967;43.538;-5.646;2022-09-16T07:43:44;101746.69;;;30.37
69704;BMP280;56967;43.538;-5.646;2022-09-16T07:46:11;101746.69;;;30.57
69704;BMP280;56967;43.538;-5.646;2022-09-16T07:48:38;101752.00;;;30.54
69704;BMP280;56967;43.538;-5.646;2022-09-16T07:51:24;101762.44;;;30.84
69704;BMP280;56967;43.538;-5.646;2022-09-16T07:53:55;101754.50;;;31.00
69704;BMP280;56967;43.538;-5.646;2022-09-16T07:56:24;101758.53;;;29.65
69704;BMP280;56967;43.538;-5.646;2022-09-16T07:58:51;101769.03;;;29.67
69704;BMP280;56967;43.538;-5.646;2022-09-16T08:01:17;101769.00;;;29.03
69704;BMP280;56967;43.538;-5.646;2022-09-16T08:03:44;101769.78;;;30.22
69704;BMP280;56967;43.538;-5.646;2022-09-16T08:06:15;101766.63;;;30.41
69704;BMP280;56967;43.538;-5.646;2022-09-16T08:08:42;101768.88;;;30.39
69704;BMP280;56967;43.538;-5.646;2022-09-16T08:11:08;101764.16;;;30.48
69704;BMP280;56967;43.538;-5.646;2022-09-16T08:13:36;101773.88;;;31.10
69704;BMP280;56967;43.538;-5.646;2022-09-16T08:16:07;101777.34;;;31.31
69704;BMP280;56967;43.538;-5.646;2022-09-16T08:18:33;101782.72;;;31.19
69704;BMP280;56967;43.538;-5.646;2022-09-16T08:21:05;101784.16;;;31.37
69704;BMP280;56967;43.538;-5.646;2022-09-16T08:23:30;101776.47;;;31.07
69704;BMP280;56967;43.538;-5.646;2022-09-16T08:25:57;101792.06;;;31.18
69704;BMP280;56967;43.538;-5.646;2022-09-16T08:28:23;101785.91;;;30.68
69704;BMP280;56967;43.538;-5.646;2022-09-16T08:30:49;101792.66;;;30.83
69704;BMP280;56967;43.538;-5.646;2022-09-16T08:33:15;101796.09;;;31.57
69704;BMP280;56967;43.538;-5.646;2022-09-16T08:35:45;101799.19;;;31.92
69704;BMP280;56967;43.538;-5.646;2022-09-16T08:38:11;101804.03;;;32.34
69704;BMP280;56967;43.538;-5.646;2022-09-16T08:40:43;101799.97;;;32.68
69704;BMP280;56967;43.538;-5.646;2022-09-16T08:43:22;101799.03;;;32.24
69704;BMP280;56967;43.538;-5.646;2022-09-16T08:45:59;101799.75;;;32.61
69704;BMP280;56967;43.538;-5.646;2022-09-16T08:48:48;101799.97;;;32.28
69704;BMP280;56967;43.538;-5.646;2022-09-16T08:51:19;101805.56;;;31.27
69704;BMP280;56967;43.538;-5.646;2022-09-16T08:53:48;101798.72;;;30.39
69704;BMP280;56967;43.538;-5.646;2022-09-16T08:56:17;101800.53;;;30.55
69704;BMP280;56967;43.538;-5.646;2022-09-16T08:58:45;101809.19;;;31.31
69704;BMP280;56967;43.538;-5.646;2022-09-16T09:03:57;101817.03;;;31.44
69704;BMP280;56967;43.538;-5.646;2022-09-16T09:06:27;101817.78;;;31.78
69704;BMP280;56967;43.538;-5.646;2022-09-16T09:11:49;101826.84;;;31.82
69704;BMP280;56967;43.538;-5.646;2022-09-16T09:14:48;101820.50;;;32.26
69704;BMP280;56967;43.538;-5.646;2022-09-16T09:20:29;101827.75;;;32.22
69704;BMP280;56967;43.538;-5.646;2022-09-16T09:25:56;101828.81;;;33.24
69704;BMP280;56967;43.538;-5.646;2022-09-16T09:37:14;101834.91;;;36.04
69704;BMP280;56967;43.538;-5.646;2022-09-16T09:43:11;101844.56;;;32.12
69704;BMP280;56967;43.538;-5.646;2022-09-16T09:45:53;101843.06;;;32.50
69704;BMP280;56967;43.538;-5.646;2022-09-16T09:48:23;101844.19;;;32.49
69704;BMP280;56967;43.538;-5.646;2022-09-16T09:50:51;101848.50;;;32.26
69704;BMP280;56967;43.538;-5.646;2022-09-16T09:53:25;101847.34;;;31.79
69704;BMP280;56967;43.538;-5.646;2022-09-16T09:58:47;101837.53;;;32.74
69704;BMP280;56967;43.538;-5.646;2022-09-16T10:01:15;101842.19;;;33.60
69704;BMP280;56967;43.538;-5.646;2022-09-16T10:03:41;101834.09;;;34.64
69704;BMP280;56967;43.538;-5.646;2022-09-16T10:06:09;101829.56;;;34.72
69704;BMP280;56967;43.538;-5.646;2022-09-16T10:08:42;101838.88;;;34.71
69704;BMP280;56967;43.538;-5.646;2022-09-16T10:11:24;101838.97;;;34.20
69704;BMP280;56967;43.538;-5.646;2022-09-16T10:13:55;101847.81;;;34.14
69704;BMP280;56967;43.538;-5.646;2022-09-16T10:16:26;101844.66;;;35.26
69704;BMP280;56967;43.538;-5.646;2022-09-16T10:19:20;101840.34;;;34.84
69704;BMP280;56967;43.538;-5.646;2022-09-16T10:22:08;101845.47;;;33.50
69704;BMP280;56967;43.538;-5.646;2022-09-16T10:24:39;101846.13;;;32.25
69704;BMP280;56967;43.538;-5.646;2022-09-16T10:30:12;101829.66;;;32.57
69704;BMP280;56967;43.538;-5.646;2022-09-16T10:32:55;101828.56;;;33.02
69704;BMP280;56967;43.538;-5.646;2022-09-16T10:35:24;101836.25;;;32.84
69704;BMP280;56967;43.538;-5.646;2022-09-16T10:40:37;101840.56;;;33.13
69704;BMP280;56967;43.538;-5.646;2022-09-16T10:43:06;101849.88;;;32.20
69704;BMP280;56967;43.538;-5.646;2022-09-16T10:45:44;101838.94;;;32.96
69704;BMP280;56967;43.538;-5.646;2022-09-16T10:48:13;101846.72;;;31.94
69704;BMP280;56967;43.538;-5.646;2022-09-16T10:53:26;101841.19;;;31.25
69704;BMP280;56967;43.538;-5.646;2022-09-16T10:56:18;101842.16;;;31.98
69704;BMP280;56967;43.538;-5.646;2022-09-16T10:58:44;101852.84;;;31.91
69704;BMP280;56967;43.538;-5.646;2022-09-16T11:01:24;101854.69;;;31.54
69704;BMP280;56967;43.538;-5.646;2022-09-16T11:07:08;101847.59;;;32.46
69704;BMP280;56967;43.538;-5.646;2022-09-16T11:18:28;101843.59;;;31.60
69704;BMP280;56967;43.538;-5.646;2022-09-16T11:34:32;101841.75;;;31.19
69704;BMP280;56967;43.538;-5.646;2022-09-16T11:37:19;101849.88;;;31.96
69704;BMP280;56967;43.538;-5.646;2022-09-16T11:42:44;101841.63;;;31.60
69704;BMP280;56967;43.538;-5.646;2022-09-16T11:59:09;101852.34;;;32.37
69704;BMP280;56967;43.538;-5.646;2022-09-16T12:02:29;101849.97;;;33.89
69704;BMP280;56967;43.538;-5.646;2022-09-16T12:07:38;101845.03;;;33.48
69704;BMP280;56967;43.538;-5.646;2022-09-16T12:10:22;101838.25;;;33.27
69704;BMP280;56967;43.538;-5.646;2022-09-16T12:12:53;101841.78;;;33.89
69704;BMP280;56967;43.538;-5.646;2022-09-16T12:15:27;101849.78;;;33.82
69704;BMP280;56967;43.538;-5.646;2022-09-16T12:18:07;101841.97;;;33.81
69704;BMP280;56967;43.538;-5.646;2022-09-16T12:20:37;101844.63;;;32.51
69704;BMP280;56967;43.538;-5.646;2022-09-16T12:23:13;101836.03;;;33.48
69704;BMP280;56967;43.538;-5.646;2022-09-16T12:26:10;101834.41;;;33.59
69704;BMP280;56967;43.538;-5.646;2022-09-16T12:28:45;101842.69;;;33.19
69704;BMP280;56967;43.538;-5.646;2022-09-16T12:31:29;101835.34;;;32.16
69704;BMP280;56967;43.538;-5.646;2022-09-16T12:34:02;101835.19;;;32.88
69704;BMP280;56967;43.538;-5.646;2022-09-16T12:36:34;101835.44;;;32.96
69704;BMP280;56967;43.538;-5.646;2022-09-16T12:39:01;101840.72;;;32.13
69704;BMP280;56967;43.538;-5.646;2022-09-16T12:53:05;101835.97;;;31.53
69704;BMP280;56967;43.538;-5.646;2022-09-16T13:01:25;101834.38;;;31.52
69704;BMP280;56967;43.538;-5.646;2022-09-16T13:04:17;101833.78;;;32.03
69704;BMP280;56967;43.538;-5.646;2022-09-16T13:06:49;101833.19;;;32.46
69704;BMP280;56967;43.538;-5.646;2022-09-16T13:09:22;101836.50;;;32.03
69704;BMP280;56967;43.538;-5.646;2022-09-16T13:11:57;101839.69;;;32.69
69704;BMP280;56967;43.538;-5.646;2022-09-16T13:17:09;101847.47;;;32.43
69704;BMP280;56967;43.538;-5.646;2022-09-16T13:20:18;101839.09;;;32.00
69704;BMP280;56967;43.538;-5.646;2022-09-16T13:22:59;101833.13;;;32.70
69704;BMP280;56967;43.538;-5.646;2022-09-16T13:26:01;101833.03;;;32.94
69704;BMP280;56967;43.538;-5.646;2022-09-16T13:33:42;101830.25;;;33.06
69704;BMP280;56967;43.538;-5.646;2022-09-16T13:38:53;101840.06;;;32.55
69704;BMP280;56967;43.538;-5.646;2022-09-16T13:41:44;101826.47;;;33.54
69704;BMP280;56967;43.538;-5.646;2022-09-16T13:49:53;101815.94;;;32.30
69704;BMP280;56967;43.538;-5.646;2022-09-16T13:52:27;101814.66;;;33.19
69704;BMP280;56967;43.538;-5.646;2022-09-16T13:54:58;101810.78;;;33.66
69704;BMP280;56967;43.538;-5.646;2022-09-16T14:06:03;101787.94;;;33.40
69704;BMP280;56967;43.538;-5.646;2022-09-16T14:08:55;101794.28;;;32.21
69704;BMP280;56967;43.538;-5.646;2022-09-16T14:14:24;101806.91;;;31.00
69704;BMP280;56967;43.538;-5.646;2022-09-16T14:16:52;101802.84;;;31.39
69704;BMP280;56967;43.538;-5.646;2022-09-16T14:19:26;101792.03;;;31.63
69704;BMP280;56967;43.538;-5.646;2022-09-16T14:22:05;101787.84;;;32.14
69704;BMP280;56967;43.538;-5.646;2022-09-16T14:24:39;101777.44;;;30.90
69704;BMP280;56967;43.538;-5.646;2022-09-16T14:27:16;101769.34;;;31.14
69704;BMP280;56967;43.538;-5.646;2022-09-16T14:29:59;101777.06;;;31.81
69704;BMP280;56967;43.538;-5.646;2022-09-16T14:32:28;101756.19;;;30.72
69704;BMP280;56967;43.538;-5.646;2022-09-16T14:34:55;101763.50;;;31.24
69704;BMP280;56967;43.538;-5.646;2022-09-16T14:37:24;101766.75;;;30.65
69704;BMP280;56967;43.538;-5.646;2022-09-16T14:39:50;101767.03;;;30.72
69704;BMP280;56967;43.538;-5.646;2022-09-16T14:42:19;101772.06;;;30.61
69704;BMP280;56967;43.538;-5.646;2022-09-16T14:44:51;101767.09;;;30.63
69704;BMP280;56967;43.538;-5.646;2022-09-16T14:47:20;101763.56;;;31.04
69704;BMP280;56967;43.538;-5.646;2022-09-16T14:49:50;101758.88;;;30.72
69704;BMP280;56967;43.538;-5.646;2022-09-16T14:52:22;101742.88;;;30.29
69704;BMP280;56967;43.538;-5.646;2022-09-16T14:54:48;101747.50;;;30.28
69704;BMP280;56967;43.538;-5.646;2022-09-16T14:57:20;101749.41;;;30.78
69704;BMP280;56967;43.538;-5.646;2022-09-16T14:59:53;101747.19;;;31.24
69704;BMP280;56967;43.538;-5.646;2022-09-16T15:02:32;101757.41;;;30.74
69704;BMP280;56967;43.538;-5.646;2022-09-16T15:07:40;101742.59;;;30.72
69704;BMP280;56967;43.538;-5.646;2022-09-16T15:10:22;101738.78;;;30.85
69704;BMP280;56967;43.538;-5.646;2022-09-16T15:12:54;101737.72;;;29.86
69704;BMP280;56967;43.538;-5.646;2022-09-16T15:15:24;101731.16;;;29.50
69704;BMP280;56967;43.538;-5.646;2022-09-16T15:20:24;101742.91;;;29.91
69704;BMP280;56967;43.538;-5.646;2022-09-16T15:22:51;101728.63;;;29.45
69704;BMP280;56967;43.538;-5.646;2022-09-16T15:25:23;101727.41;;;30.00
69704;BMP280;56967;43.538;-5.646;2022-09-16T15:27:50;101721.41;;;29.95
69704;BMP280;56967;43.538;-5.646;2022-09-16T15:30:24;101727.53;;;30.12
69704;BMP280;56967;43.538;-5.646;2022-09-16T15:32:50;101707.88;;;29.78
69704;BMP280;56967;43.538;-5.646;2022-09-16T15:35:22;101720.56;;;30.23
69704;BMP280;56967;43.538;-5.646;2022-09-16T15:37:49;101714.66;;;30.30
69704;BMP280;56967;43.538;-5.646;2022-09-16T15:40:29;101727.63;;;30.66
69704;BMP280;56967;43.538;-5.646;2022-09-16T15:45:39;101724.38;;;30.52
69704;BMP280;56967;43.538;-5.646;2022-09-16T15:48:25;101733.78;;;30.54
69704;BMP280;56967;43.538;-5.646;2022-09-16T15:51:00;101730.00;;;30.47
69704;BMP280;56967;43.538;-5.646;2022-09-16T15:55:59;101731.34;;;30.61
69704;BMP280;56967;43.538;-5.646;2022-09-16T15:58:38;101725.25;;;30.14
69704;BMP280;56967;43.538;-5.646;2022-09-16T16:06:09;101721.69;;;29.64
69704;BMP280;56967;43.538;-5.646;2022-09-16T16:08:48;101722.25;;;29.41
69704;BMP280;56967;43.538;-5.646;2022-09-16T16:11:16;101722.03;;;29.92
69704;BMP280;56967;43.538;-5.646;2022-09-16T16:13:42;101720.53;;;29.74
69704;BMP280;56967;43.538;-5.646;2022-09-16T16:16:09;101735.03;;;29.32
69704;BMP280;56967;43.538;-5.646;2022-09-16T16:18:35;101719.78;;;29.65
69704;BMP280;56967;43.538;-5.646;2022-09-16T16:21:07;101732.63;;;29.85
69704;BMP280;56967;43.538;-5.646;2022-09-16T16:23:33;101725.97;;;30.03
69704;BMP280;56967;43.538;-5.646;2022-09-16T16:26:00;101726.00;;;29.94
69704;BMP280;56967;43.538;-5.646;2022-09-16T16:28:26;101718.47;;;29.71
69704;BMP280;56967;43.538;-5.646;2022-09-16T16:30:52;101713.22;;;30.24
69704;BMP280;56967;43.538;-5.646;2022-09-16T16:33:17;101719.31;;;29.54
69704;BMP280;56967;43.538;-5.646;2022-09-16T16:35:43;101714.19;;;29.61
69704;BMP280;56967;43.538;-5.646;2022-09-16T16:38:08;101710.34;;;29.71
69704;BMP280;56967;43.538;-5.646;2022-09-16T16:40:34;101718.97;;;28.84
69704;BMP280;56967;43.538;-5.646;2022-09-16T16:43:00;101738.56;;;29.06
69704;BMP280;56967;43.538;-5.646;2022-09-16T16:45:25;101729.88;;;29.47
69704;BMP280;56967;43.538;-5.646;2022-09-16T16:47:51;101720.88;;;29.09
69704;BMP280;56967;43.538;-5.646;2022-09-16T16:50:17;101714.63;;;29.17
69704;BMP280;56967;43.538;-5.646;2022-09-16T16:52:43;101724.38;;;28.92
69704;BMP280;56967;43.538;-5.646;2022-09-16T16:55:08;101716.56;;;28.65
69704;BMP280;56967;43.538;-5.646;2022-09-16T16:57:34;101737.28;;;29.21
69704;BMP280;56967;43.538;-5.646;2022-09-16T17:00:00;101720.09;;;28.66
69704;BMP280;56967;43.538;-5.646;2022-09-16T17:02:25;101719.13;;;29.13
69704;BMP280;56967;43.538;-5.646;2022-09-16T17:04:51;101711.25;;;29.29
69704;BMP280;56967;43.538;-5.646;2022-09-16T17:07:16;101709.81;;;28.37
69704;BMP280;56967;43.538;-5.646;2022-09-16T17:09:42;101709.72;;;28.93
69704;BMP280;56967;43.538;-5.646;2022-09-16T17:12:08;101712.59;;;28.88